Weather at Mountain Airport

Public forecast

Using degrees Celsius for public forecast. Weather courtesy of forecast.io.

Closest aviation weather report (METAR) to Mountain Airport

Closest report is Tribhuvan International Airport, 18.3 nm (33.8 km) S. Retrieved 2020/10/01 06:50 UTC (1 hour ago):

VNKT 010650Z 21008KT 180V240 7000 FEW015 SCT030 28/20 Q1012 NOSIG

Closest aviation forecast (TAF) to Mountain Airport

Closest forecast is Tribhuvan International Airport, 18.3 nm (33.8 km) S. Retrieved 2020/10/01 06:54 UTC (58 minutes ago):

TAF TAF VNKT 010500Z 0106/0206 14004KT 7000 FEW015 SCT030 BECMG 0107/0108 28007KT 8000 FEW015 SCT030 PROB30 0108/0112 5000 -TSRA FEW025CB BKN100 BECMG 0114/0115 16004KT 7000 FEW010 SCT030 BKN100 BECMG 0200/0202 VRB02KT 5000 BR FEW010 SCT030 BKN100 BECMG 0204/0205 10003KT 6000 FEW015 SCT030